Wetterstation Rottenburg Seebronn / 442m msl / http://mut-lambrecht.de
LETZTE AKTUALISIERUNG UM: 02:35 DATUM: September 22 2017, time of next update: 02:40
Aktuelles WetterClear/Night Aktuelle Temperatur 5.9°C (42.6°F), Apparent temp 5.0°C
Höchsttemperatur (seit Mitternacht)7.2°C um: 00:00 Tiefsttemperatur (seit Mitternacht)5.9°C um: 02:29
Windgeschwindigkeit (10 Minuten )0.0 kmh (0.0 kts) Windrichtung (Dir) (10 Minuten )W (270°)
Windchill Temperatur 5.9°C Windspitzen (letzte Std)2.8 kmh (1.5 kts) um: 02:25
Windspitzen (seit Mitternacht)4.4 kmh (2.4 kts) um: 00:19 Höchstes Windmittel / Minute (seit Mitternacht)2.4 kmh (1.3 kts) um: 00:21
Regenmenge (letzte Std)0.0 mm Regenmenge (seit Mitternacht)0.0 mm (0.00 in.)---
Regenmenge diesen Monat 43.1 mm (1.70 in.) Regenmenge seit Jahresbeginn 386.8 mm (15.23 in.)
Höchste Regenmenge pro Minute (letzte Std)0.0 mm/min Höchste Regenmenge pro Stunde (letzte 6 Std)0.0 mm/stunde
Regenmenge Gestern 0.0 mm Taupunkt 3.4°C (Wet Bulb :4.9°C )
Luftfeuchtigkeit 84 %, Humidex 4.7°C Aktueller Luftdruck (auf Meereshöhe bezogen)1018.8 hPa
Luftdrucktendenz -0.1 hPa (letzte Std) Trend (letzte 1 Std)gleichbleibend
Luftdrucktendenz (letzte 12 Std)-1.5 hPa Luftdrucktendenz (letzte 6 Std)+0.8 hPa



Weather report/warning/Metars

Stuttgart-Echterdingen, Germany (EDDS) 48-41N 009-13E 391M
Sep 21, 2017 - 08:20 PM EDT / 2017.09.22 0020 UTC
Wind: from the W (270 degrees) at 2 MPH (2 KT):0
Visibility: greater than 7 mile(s):0
Temperature: 44 F (7 C)
Dew Point: 42 F (6 C)
Relative Humidity: 93%
Pressure (altimeter): 30.12 in. Hg (1020 hPa)
ob: EDDS 220020Z 27002KT CAVOK 07/06 Q1020
cycle: 0
Karlsruhe, Baden Wurttemberg, Germany (EDSB) 48-46-43N 008-04-47E
Sep 21, 2017 - 05:20 PM EDT / 2017.09.21 2120 UTC
Wind: Calm:0
Visibility: greater than 7 mile(s):0
Temperature: 50 F (10 C)
Dew Point: 48 F (9 C)
Relative Humidity: 93%
Pressure (altimeter): 30.09 in. Hg (1019 hPa)
ob: EDSB 212120Z 00000KT CAVOK 10/09 Q1019
cycle: 21
Lahr, CAN-AFB, Germany (EDTL) 48-22-09N 007-49-40E
Sep 21, 2017 - 01:20 PM EDT / 2017.09.21 1720 UTC
Wind: from the N (350 degrees) at 3 MPH (3 KT):0
Visibility: greater than 7 mile(s):0
Temperature: 62 F (17 C)
Dew Point: 50 F (10 C)
Relative Humidity: 63%
Pressure (altimeter): 30.09 in. Hg (1019 hPa)
ob: EDTL 211720Z 35003KT CAVOK 17/10 Q1019
cycle: 17
Laupheim, Germany (ETHL) 48-13N 009-55E 550M
Sep 21, 2017 - 08:20 PM EDT / 2017.09.22 0020 UTC
Wind: Calm:0
Visibility: greater than 7 mile(s):0
Sky conditions: mostly clear
Temperature: 42 F (6 C)
Dew Point: 41 F (5 C)
Relative Humidity: 93%
Pressure (altimeter): 30.15 in. Hg (1021 hPa)
ob: ETHL 220020Z 00000KT 9999 FEW320 06/05 Q1021 BLU+
cycle: 0


Klicken Sie hier, um zu den Durchschnitts-, Extrem-, Monats- oder Tageswerten zu gelangen


Die Wetterdaten werden alle 5 Minuten aktualisiert.

Drücken Sie gegebenenfalls auf "Aktualisieren" in Ihrem Browser, um die aktuellsten Daten zu erhalten.

Created by "Weather Display" software version 10.37S at this start time/date 23:14:12 18.10.2016